F/V Rupella — FUNH — position and weather

sailwx.info

Track history (hours):
 
Tides and Currents Weather Stations Pressure Air Temp Water Temp Dewpoint Dewpoint Depression Visibility Wind Speed Wind Dir Waves Ship Positions

F/V Rupella

Last reported at 2017-Sep-20 16:15 UTC. Time now 2017-Sep-20 18:36 UTC.
Position N 45°58' W 001°35'.

Length 16 m.

Type: Fishing. MMSI: 228958000.

Date/timePositionNaut miles runAvg speedWind from/ knotsBaromVisibWave heightAir tempDewpointWater temp
2017-Sep-20 16:15N 45°58' W 001°35'1 3.6
2017-Sep-20 16:00N 45°59' W 001°35'3 0.8
2017-Sep-20 11:39N 46°01' W 001°32'2 3.1
2017-Sep-20 10:55N 46°00' W 001°35'2 3.7
2017-Sep-20 10:19N 45°58' W 001°34'3 1.5
2017-Sep-20 08:12N 46°01' W 001°32'2 2.0
2017-Sep-20 07:09N 46°00' W 001°35'10 0.3
2017-Sep-18 17:44N 46°09' W 001°42'5 3.0
2017-Sep-18 16:09N 46°13' W 001°47'1 0.3
2017-Sep-18 11:28N 46°13' W 001°49'2 3.2
2017-Sep-18 10:57N 46°14' W 001°50'1 2.9
2017-Sep-18 10:30N 46°15' W 001°49'2 3.3
2017-Sep-18 10:00N 46°14' W 001°47'3 0.5
2017-Sep-18 03:35N 46°11' W 001°47'0 3.4
2017-Sep-18 03:30N 46°11' W 001°48'2 3.4
2017-Sep-18 03:00N 46°13' W 001°49'2 3.5
2017-Sep-18 02:30N 46°14' W 001°50'1 2.9
2017-Sep-18 02:00N 46°15' W 001°48'2 3.5
2017-Sep-18 01:27N 46°14' W 001°47'1 0.3
2017-Sep-17 23:44N 46°14' W 001°47'1 3.4
2017-Sep-17 23:28N 46°15' W 001°48'1 3.0
2017-Sep-17 23:00N 46°15' W 001°50'2 3.3
2017-Sep-17 22:30N 46°13' W 001°49'2 3.4
2017-Sep-17 21:55N 46°12' W 001°48'4 0.8
2017-Sep-17 16:47N 46°10' W 001°43'4 2.5
2017-Sep-17 15:10N 46°13' W 001°46'1 3.0
2017-Sep-17 14:53N 46°14' W 001°45'4 0.8
2017-Sep-17 10:08N 46°10' W 001°43'4 1.1
2017-Sep-17 06:59N 46°13' W 001°46'1 2.3
2017-Sep-17 06:29N 46°12' W 001°46'3 3.3
2017-Sep-17 05:28N 46°10' W 001°43'4 2.1
2017-Sep-17 03:22N 46°13' W 001°46'2 0.6
2017-Sep-16 23:06N 46°11' W 001°47'2 3.4
2017-Sep-16 22:35N 46°13' W 001°49'0 3.3
2017-Sep-16 22:30N 46°13' W 001°49'2 3.3
2017-Sep-16 22:00N 46°14' W 001°50'2 3.1
2017-Sep-16 21:30N 46°16' W 001°49'2 3.0
2017-Sep-16 20:57N 46°17' W 001°48'0 0.8
2017-Sep-16 20:30N 46°17' W 001°48'2 3.5
2017-Sep-16 20:00N 46°16' W 001°47'2 3.5
2017-Sep-16 19:30N 46°14' W 001°46'1 0.2
2017-Sep-16 14:57N 46°13' W 001°46'0 0.0
2017-Sep-16 10:44N 46°13' W 001°46'1 2.6
2017-Sep-16 10:12N 46°12' W 001°46'  
Track history (hours):
 
Tides and Currents Weather Stations Pressure Air Temp Water Temp Dewpoint Dewpoint Depression Visibility Wind Speed Wind Dir Waves Ship Positions

F/V Rupella

Last reported at 2017-Sep-20 16:15 UTC. Time now 2017-Sep-20 18:36 UTC.
Position N 45°58' W 001°35'.

Length 16 m.

Type: Fishing. MMSI: 228958000.

Date/timePositionNaut miles runAvg speedWind from/ knotsBaromVisibWave heightAir tempDewpointWater temp
2017-Sep-20 16:15N 45°58' W 001°35'1 3.6
2017-Sep-20 16:00N 45°59' W 001°35'3 0.8
2017-Sep-20 11:39N 46°01' W 001°32'2 3.1
2017-Sep-20 10:55N 46°00' W 001°35'2 3.7
2017-Sep-20 10:19N 45°58' W 001°34'3 1.5
2017-Sep-20 08:12N 46°01' W 001°32'2 2.0
2017-Sep-20 07:09N 46°00' W 001°35'10 0.3
2017-Sep-18 17:44N 46°09' W 001°42'5 3.0
2017-Sep-18 16:09N 46°13' W 001°47'1 0.3
2017-Sep-18 11:28N 46°13' W 001°49'2 3.2
2017-Sep-18 10:57N 46°14' W 001°50'1 2.9
2017-Sep-18 10:30N 46°15' W 001°49'2 3.3
2017-Sep-18 10:00N 46°14' W 001°47'3 0.5
2017-Sep-18 03:35N 46°11' W 001°47'0 3.4
2017-Sep-18 03:30N 46°11' W 001°48'2 3.4
2017-Sep-18 03:00N 46°13' W 001°49'2 3.5
2017-Sep-18 02:30N 46°14' W 001°50'1 2.9
2017-Sep-18 02:00N 46°15' W 001°48'2 3.5
2017-Sep-18 01:27N 46°14' W 001°47'1 0.3
2017-Sep-17 23:44N 46°14' W 001°47'1 3.4
2017-Sep-17 23:28N 46°15' W 001°48'1 3.0
2017-Sep-17 23:00N 46°15' W 001°50'2 3.3
2017-Sep-17 22:30N 46°13' W 001°49'2 3.4
2017-Sep-17 21:55N 46°12' W 001°48'4 0.8
2017-Sep-17 16:47N 46°10' W 001°43'4 2.5
2017-Sep-17 15:10N 46°13' W 001°46'1 3.0
2017-Sep-17 14:53N 46°14' W 001°45'4 0.8
2017-Sep-17 10:08N 46°10' W 001°43'4 1.1
2017-Sep-17 06:59N 46°13' W 001°46'1 2.3
2017-Sep-17 06:29N 46°12' W 001°46'3 3.3
2017-Sep-17 05:28N 46°10' W 001°43'4 2.1
2017-Sep-17 03:22N 46°13' W 001°46'2 0.6
2017-Sep-16 23:06N 46°11' W 001°47'2 3.4
2017-Sep-16 22:35N 46°13' W 001°49'0 3.3
2017-Sep-16 22:30N 46°13' W 001°49'2 3.3
2017-Sep-16 22:00N 46°14' W 001°50'2 3.1
2017-Sep-16 21:30N 46°16' W 001°49'2 3.0
2017-Sep-16 20:57N 46°17' W 001°48'0 0.8
2017-Sep-16 20:30N 46°17' W 001°48'2 3.5
2017-Sep-16 20:00N 46°16' W 001°47'2 3.5
2017-Sep-16 19:30N 46°14' W 001°46'1 0.2
2017-Sep-16 14:57N 46°13' W 001°46'0 0.0
2017-Sep-16 10:44N 46°13' W 001°46'1 2.6
2017-Sep-16 10:12N 46°12' W 001°46'  

Dump ship's entire track history